首页
METAR-TAF:

METAR-TAF

机场 :

法布拉, 英格兰

纬度: 51-17N, 经度: 000-46W, 海拔: 65米

当前天气观测

该预报发布于26分钟前的09:50 UTC
静风
温度 0°C
湿度 93%
气压 1044 hPa
能见度10公里或以上
1500米以下无云,无积雨云

METAR: EGLF 190950Z 00000KT CAVOK 00/M01 Q1044

时间: 10:16 (10:16 UTC)

预报

该预报发布于2小时和17分钟前的07:59 UTC
预报有效从19日的 09点(UTC)到 19日的 18点(UTC)
风速4节,风向西北
能见度10公里或以上
1500米以下无云,无积雨云
短暂存在
从 19日的 09点(UTC)到 19日的 10点(UTC)
能見度: 7000

TAF: EGLF 190759Z 1909/1918 32004KT CAVOK TEMPO 1909/1910 7000

超过4000个机场的气象观测和天气预报(METAR&TAF报告)。

可查询的气象台以黄色和红色小点在地图上表示。

将鼠标移到小点上方,可查看气象台名称。

然后点击查看天气观测和预报。

如需切换地图:点击带黑十字的绿色按钮放大地图;点击带横线的绿色按钮缩小地图;或者点击绿色箭头查看邻近地区的地图。


METAR-TAF: